Time;durP1;ratioP1;P1;durP2;ratioP2;P2;SDS_P1;SDS_P2;PMS_P1;PMS_P2;Temp;Humidity;BMP_temperature;BMP_pressure;BME280_temperature;BME280_humidity;BME280_pressure;Samples;Min_cycle;Max_cycle;Signal;HPM_P1;HPM_P2
2024/02/01 00:01:08;;;;;;;0.80;0.57;;;;;;;;;;4993532;28;20058;-91
2024/02/01 00:03:38;;;;;;;0.68;0.68;;;;;;;;;;5009667;28;20447;-92
2024/02/01 00:06:07;;;;;;;1.38;1.23;;;;;;;;;;5007147;28;20050;-92
2024/02/01 00:12:07;;;;;;;0.10;0.10;;;;;;;;;;5006909;28;20113;-93
2024/02/01 00:14:36;;;;;;;1.83;1.10;;;;;;;;;;4996537;28;20046;-91
2024/02/01 00:17:18;;;;;;;0.40;0.40;;;;;;;;;;4978070;28;20055;-91
2024/02/01 00:19:56;;;;;;;0.20;0.20;;;;;;;;;;4968817;28;20119;-93
2024/02/01 00:22:40;;;;;;;0.20;0.20;;;;;;;;;;4973633;29;20063;-92
2024/02/01 00:25:08;;;;;;;0.43;0.43;;;;;;;;;;4964343;29;20078;-92
2024/02/01 00:27:37;;;;;;;0.47;0.40;;;;;;;;;;4965761;28;20051;-92
2024/02/01 00:30:06;;;;;;;0.10;0.10;;;;;;;;;;4965271;29;20054;-93
2024/02/01 00:32:36;;;;;;;2.17;1.58;;;;;;;;;;4966634;29;20055;-91
2024/02/01 00:35:09;;;;;;;1.05;0.98;;;;;;;;;;4966724;29;20177;-91
2024/02/01 00:37:53;;;;;;;0.82;0.73;;;;;;;;;;4964037;29;20324;-88
2024/02/01 00:40:36;;;;;;;1.10;0.85;;;;;;;;;;4963673;29;20055;-88
2024/02/01 00:43:08;;;;;;;0.82;0.82;;;;;;;;;;4963024;29;20055;-89
2024/02/01 00:45:38;;;;;;;1.95;1.33;;;;;;;;;;4964159;28;20409;-89
2024/02/01 00:48:17;;;;;;;0.32;0.10;;;;;;;;;;4965053;29;20115;-90
2024/02/01 00:50:46;;;;;;;0.88;0.85;;;;;;;;;;4966074;29;20055;-88
2024/02/01 00:53:19;;;;;;;0.93;0.93;;;;;;;;;;4970076;28;20103;-90
2024/02/01 00:56:03;;;;;;;3.92;1.30;;;;;;;;;;4974380;29;20039;-90
2024/02/01 00:58:32;;;;;;;0.10;0.10;;;;;;;;;;4972278;29;20047;-89
2024/02/01 01:01:04;;;;;;;3.40;1.23;;;;;;;;;;4976181;28;20436;-88
2024/02/01 01:03:33;;;;;;;1.33;1.27;;;;;;;;;;4964936;29;20079;-88
2024/02/01 01:06:14;;;;;;;2.58;0.88;;;;;;;;;;4962699;29;20134;-88
2024/02/01 01:08:50;;;;;;;0.40;0.35;;;;;;;;;;4960288;29;20081;-87
2024/02/01 01:11:21;;;;;;;1.95;0.43;;;;;;;;;;4960873;29;20062;-89
2024/02/01 01:13:51;;;;;;;1.45;1.35;;;;;;;;;;4961189;29;20130;-88
2024/02/01 01:16:23;;;;;;;0.15;0.15;;;;;;;;;;4962147;29;20051;-88
2024/02/01 01:18:52;;;;;;;0.40;0.40;;;;;;;;;;4965970;28;20396;-89
2024/02/01 01:21:34;;;;;;;0.68;0.68;;;;;;;;;;4965309;28;20055;-88
2024/02/01 01:24:17;;;;;;;1.70;1.60;;;;;;;;;;4960765;29;20047;-87
2024/02/01 01:26:50;;;;;;;0.87;0.70;;;;;;;;;;4963781;29;20138;-90
2024/02/01 01:29:32;;;;;;;0.47;0.47;;;;;;;;;;4974134;28;20474;-89
2024/02/01 01:32:01;;;;;;;1.58;1.48;;;;;;;;;;4967895;28;20117;-89
2024/02/01 01:34:28;;;;;;;0.10;0.10;;;;;;;;;;4960978;29;20111;-89
2024/02/01 01:37:00;;;;;;;1.38;1.10;;;;;;;;;;4962133;29;20474;-88
2024/02/01 01:39:31;;;;;;;0.20;0.20;;;;;;;;;;4967819;29;20058;-89
2024/02/01 01:42:00;;;;;;;0.28;0.28;;;;;;;;;;4967458;29;20336;-88
2024/02/01 01:44:40;;;;;;;0.43;0.43;;;;;;;;;;4961641;29;20055;-89
2024/02/01 01:47:11;;;;;;;1.65;0.90;;;;;;;;;;4963893;29;20051;-89
2024/02/01 01:49:54;;;;;;;0.57;0.57;;;;;;;;;;5040228;23;20058;-87
2024/02/01 01:52:36;;;;;;;0.10;0.10;;;;;;;;;;4985742;28;20054;-88
2024/02/01 01:58:41;;;;;;;0.20;0.20;;;;;;;;;;5001662;28;20121;-88
2024/02/01 02:01:13;;;;;;;0.38;0.38;;;;;;;;;;5165572;23;20095;-89
2024/02/01 02:03:56;;;;;;;0.17;0.17;;;;;;;;;;4964816;29;20392;-89
2024/02/01 02:06:37;;;;;;;0.10;0.10;;;;;;;;;;4965946;29;20383;-89
2024/02/01 02:09:18;;;;;;;0.08;0.08;;;;;;;;;;4965801;29;20066;-89
2024/02/01 02:11:47;;;;;;;0.32;0.32;;;;;;;;;;4968168;29;20051;-88
2024/02/01 02:14:19;;;;;;;0.40;0.40;;;;;;;;;;4966988;29;20052;-88
2024/02/01 02:16:49;;;;;;;1.77;1.67;;;;;;;;;;4963013;29;20075;-89
2024/02/01 02:19:29;;;;;;;0.85;0.82;;;;;;;;;;4963477;29;20044;-88
2024/02/01 02:22:12;;;;;;;0.57;0.57;;;;;;;;;;4958829;29;20082;-87
2024/02/01 02:24:42;;;;;;;0.80;0.50;;;;;;;;;;4967347;29;20050;-89
2024/02/01 02:27:16;;;;;;;0.40;0.40;;;;;;;;;;4967894;28;20055;-88
2024/02/01 02:29:53;;;;;;;0.10;0.10;;;;;;;;;;4971453;29;20085;-89
2024/02/01 02:32:23;;;;;;;0.28;0.28;;;;;;;;;;4977860;28;20042;-89
2024/02/01 02:34:52;;;;;;;0.17;0.17;;;;;;;;;;4967077;28;20126;-89
2024/02/01 02:37:29;;;;;;;0.10;0.10;;;;;;;;;;4972868;29;20082;-89
2024/02/01 02:40:01;;;;;;;3.58;3.30;;;;;;;;;;4973922;28;20074;-88
2024/02/01 02:42:34;;;;;;;0.38;0.38;;;;;;;;;;4964285;29;20062;-88
2024/02/01 02:45:13;;;;;;;0.00;0.00;;;;;;;;;;4964365;29;20070;-88
2024/02/01 02:47:44;;;;;;;0.13;0.13;;;;;;;;;;4963839;29;20170;-88
2024/02/01 02:50:12;;;;;;;0.00;0.00;;;;;;;;;;4964496;29;20110;-88
2024/02/01 02:52:42;;;;;;;0.00;0.00;;;;;;;;;;4965910;29;20051;-88
2024/02/01 02:55:13;;;;;;;0.10;0.10;;;;;;;;;;4966410;29;20062;-88
2024/02/01 02:57:45;;;;;;;0.10;0.10;;;;;;;;;;4966041;29;20058;-88
2024/02/01 03:00:19;;;;;;;0.00;0.00;;;;;;;;;;4965779;29;20110;-89
2024/02/01 03:03:02;;;;;;;0.10;0.10;;;;;;;;;;4963264;29;20055;-88
2024/02/01 03:05:46;;;;;;;0.10;0.10;;;;;;;;;;4955996;28;20155;-88
2024/02/01 03:08:26;;;;;;;0.22;0.22;;;;;;;;;;4932465;29;20471;-88
2024/02/01 03:10:54;;;;;;;0.10;0.10;;;;;;;;;;4931888;29;20070;-89
2024/02/01 03:13:25;;;;;;;0.20;0.20;;;;;;;;;;4942286;29;20044;-89
2024/02/01 03:16:14;;;;;;;0.10;0.10;;;;;;;;;;4943065;29;20035;-88
2024/02/01 03:18:49;;;;;;;0.10;0.10;;;;;;;;;;4941962;28;20055;-89
2024/02/01 03:21:19;;;;;;;0.65;0.65;;;;;;;;;;4936881;29;20055;-89
2024/02/01 03:23:50;;;;;;;0.10;0.10;;;;;;;;;;4936023;29;20048;-89
2024/02/01 03:26:34;;;;;;;0.30;0.30;;;;;;;;;;4919981;29;20086;-89
2024/02/01 03:29:04;;;;;;;0.10;0.10;;;;;;;;;;4925155;29;20060;-89
2024/02/01 03:31:34;;;;;;;0.00;0.00;;;;;;;;;;4926841;29;20101;-89
2024/02/01 03:34:10;;;;;;;0.05;0.05;;;;;;;;;;4942886;29;20119;-89
2024/02/01 03:36:39;;;;;;;0.00;0.00;;;;;;;;;;4953663;29;20058;-89
2024/02/01 03:39:27;;;;;;;0.10;0.10;;;;;;;;;;4967641;29;20074;-88
2024/02/01 03:42:06;;;;;;;;;;;;;;;;;;4964097;29;20043;-89
2024/02/01 03:48:09;;;;;;;0.10;0.10;;;;;;;;;;4949101;28;20049;-89
2024/02/01 03:50:50;;;;;;;0.10;0.10;;;;;;;;;;4959335;28;20270;-90
2024/02/01 03:53:18;;;;;;;0.10;0.10;;;;;;;;;;4966125;29;20054;-90
2024/02/01 03:55:51;;;;;;;0.00;0.00;;;;;;;;;;4961865;29;20051;-89
2024/02/01 03:58:26;;;;;;;0.10;0.10;;;;;;;;;;4962038;29;20403;-88
2024/02/01 04:01:03;;;;;;;0.10;0.10;;;;;;;;;;4962049;28;20491;-89
2024/02/01 04:03:31;;;;;;;0.00;0.00;;;;;;;;;;4964307;29;20075;-89
2024/02/01 04:06:13;;;;;;;0.00;0.00;;;;;;;;;;4963191;29;20400;-89
2024/02/01 04:08:44;;;;;;;0.00;0.00;;;;;;;;;;4967043;29;20051;-89
2024/02/01 04:11:16;;;;;;;0.10;0.10;;;;;;;;;;4976567;28;20176;-89
2024/02/01 04:13:44;;;;;;;0.10;0.10;;;;;;;;;;4973887;28;20431;-88
2024/02/01 04:16:16;;;;;;;0.20;0.20;;;;;;;;;;4964776;29;20412;-88
2024/02/01 04:18:46;;;;;;;0.10;0.10;;;;;;;;;;4964418;29;20068;-89
2024/02/01 04:21:15;;;;;;;0.10;0.10;;;;;;;;;;4959091;28;20081;-89
2024/02/01 04:23:46;;;;;;;0.20;0.20;;;;;;;;;;4961444;29;20070;-89
2024/02/01 04:26:15;;;;;;;0.10;0.10;;;;;;;;;;4961793;29;20067;-89
2024/02/01 04:29:38;;;;;;;;;;;;;;;;;;;;;
2024/02/01 04:32:34;;;;;;;0.10;0.10;;;;;;;;;;4977526;28;20047;-91
2024/02/01 04:35:44;;;;;;;0.10;0.10;;;;;;;;;;4972584;29;20499;-90
2024/02/01 04:43:43;;;;;;;0.20;0.20;;;;;;;;;;5896642;23;20058;-89
2024/02/01 04:46:11;;;;;;;0.17;0.17;;;;;;;;;;4984222;28;20527;-89
2024/02/01 04:48:42;;;;;;;0.20;0.20;;;;;;;;;;5002998;28;20077;-89
2024/02/01 04:51:17;;;;;;;0.10;0.10;;;;;;;;;;4987355;28;20050;-89
2024/02/01 04:53:45;;;;;;;0.10;0.10;;;;;;;;;;4983692;28;20363;-88
2024/02/01 04:56:14;;;;;;;0.10;0.10;;;;;;;;;;4985117;28;20089;-89
2024/02/01 04:58:42;;;;;;;0.10;0.10;;;;;;;;;;4984194;28;20100;-89
2024/02/01 05:01:14;;;;;;;0.20;0.20;;;;;;;;;;4983024;28;20295;-89
2024/02/01 05:03:42;;;;;;;0.20;0.20;;;;;;;;;;4999365;28;20138;-89
2024/02/01 05:06:19;;;;;;;0.10;0.10;;;;;;;;;;4989309;28;20060;-90
2024/02/01 05:09:03;;;;;;;0.00;0.00;;;;;;;;;;4997153;28;20038;-90
2024/02/01 05:16:56;;;;;;;0.10;0.10;;;;;;;;;;5711689;22;20794;-89
2024/02/01 05:19:29;;;;;;;0.10;0.10;;;;;;;;;;5000627;28;20065;-89
2024/02/01 05:22:09;;;;;;;0.10;0.10;;;;;;;;;;4993501;28;20181;-89
2024/02/01 05:24:51;;;;;;;0.73;0.73;;;;;;;;;;4984642;28;20085;-89
2024/02/01 05:27:23;;;;;;;0.10;0.10;;;;;;;;;;4983190;28;20073;-89
2024/02/01 05:29:53;;;;;;;0.10;0.10;;;;;;;;;;5001301;28;20433;-89
2024/02/01 05:32:21;;;;;;;0.10;0.10;;;;;;;;;;4982924;28;20121;-89
2024/02/01 05:34:51;;;;;;;0.10;0.10;;;;;;;;;;5004734;28;20280;-89
2024/02/01 05:49:28;;;;;;;0.10;0.10;;;;;;;;;;5000489;28;20520;-90
2024/02/01 05:52:03;;;;;;;0.10;0.10;;;;;;;;;;4984584;28;20390;-89
2024/02/01 05:54:53;;;;;;;0.20;0.20;;;;;;;;;;4986692;28;20054;-90
2024/02/01 05:57:34;;;;;;;0.10;0.10;;;;;;;;;;4996120;28;20057;-88
2024/02/01 06:00:37;;;;;;;0.10;0.10;;;;;;;;;;4999153;28;20030;-92
2024/02/01 06:03:08;;;;;;;0.10;0.10;;;;;;;;;;4985775;28;20050;-88
2024/02/01 06:05:42;;;;;;;0.10;0.10;;;;;;;;;;4986588;28;20085;-89
2024/02/01 06:08:16;;;;;;;0.10;0.10;;;;;;;;;;5004859;28;20058;-89
2024/02/01 06:10:45;;;;;;;0.13;0.13;;;;;;;;;;4988679;28;20078;-88
2024/02/01 06:13:13;;;;;;;0.10;0.10;;;;;;;;;;4989886;28;20073;-89
2024/02/01 06:15:57;;;;;;;0.10;0.10;;;;;;;;;;4991333;28;20239;-89
2024/02/01 06:18:26;;;;;;;0.10;0.10;;;;;;;;;;4983977;28;20058;-89
2024/02/01 06:20:59;;;;;;;0.17;0.17;;;;;;;;;;4983825;28;20129;-89
2024/02/01 06:23:42;;;;;;;0.20;0.20;;;;;;;;;;4997112;28;20042;-89
2024/02/01 06:26:27;;;;;;;0.10;0.10;;;;;;;;;;4984937;28;20058;-88
2024/02/01 06:29:00;;;;;;;0.10;0.10;;;;;;;;;;5003229;28;20054;-89
2024/02/01 06:31:30;;;;;;;0.10;0.10;;;;;;;;;;4982523;28;20054;-89
2024/02/01 06:34:01;;;;;;;0.10;0.10;;;;;;;;;;4983589;28;20184;-90
2024/02/01 06:36:35;;;;;;;0.10;0.10;;;;;;;;;;4982697;28;20178;-89
2024/02/01 06:44:26;;;;;;;0.20;0.20;;;;;;;;;;5003972;28;20450;-89
2024/02/01 06:47:11;;;;;;;0.10;0.10;;;;;;;;;;4978491;28;20054;-89
2024/02/01 06:50:03;;;;;;;0.10;0.10;;;;;;;;;;4917035;29;20116;-89
2024/02/01 06:52:45;;;;;;;0.10;0.10;;;;;;;;;;4964783;28;20050;-89
2024/02/01 06:55:36;;;;;;;0.10;0.10;;;;;;;;;;4964674;28;20131;-89
2024/02/01 06:58:17;;;;;;;0.10;0.10;;;;;;;;;;4967674;28;20042;-89
2024/02/01 07:01:02;;;;;;;0.15;0.15;;;;;;;;;;4965067;28;20102;-89
2024/02/01 07:03:50;;;;;;;0.10;0.10;;;;;;;;;;4966529;28;20062;-89
2024/02/01 07:06:39;;;;;;;0.10;0.10;;;;;;;;;;4970453;28;20046;-89
2024/02/01 07:09:29;;;;;;;0.10;0.10;;;;;;;;;;4972472;28;20094;-89
2024/02/01 07:12:09;;;;;;;0.15;0.15;;;;;;;;;;4964677;28;20061;-89
2024/02/01 07:14:48;;;;;;;0.10;0.10;;;;;;;;;;4965387;28;20081;-89
2024/02/01 07:17:28;;;;;;;0.10;0.10;;;;;;;;;;4967487;28;20051;-89
2024/02/01 07:19:57;;;;;;;0.10;0.10;;;;;;;;;;5001046;28;20047;-90
2024/02/01 07:22:39;;;;;;;0.10;0.10;;;;;;;;;;4990534;28;20077;-89
2024/02/01 07:25:36;;;;;;;0.10;0.10;;;;;;;;;;4989472;28;20118;-88
2024/02/01 07:59:57;;;;;;;0.10;0.10;;;;;;;;;;5000479;28;20047;-89
2024/02/01 08:02:44;;;;;;;0.10;0.10;;;;;;;;;;4982824;28;20128;-89
2024/02/01 08:08:20;;;;;;;0.10;0.10;;;;;;;;;;5002280;28;20072;-89
2024/02/01 08:11:02;;;;;;;0.10;0.10;;;;;;;;;;4984927;28;20064;-89
2024/02/01 08:13:32;;;;;;;0.10;0.10;;;;;;;;;;4985629;28;20348;-89
2024/02/01 08:16:18;;;;;;;0.10;0.10;;;;;;;;;;4984474;28;20038;-89
2024/02/01 08:24:39;;;;;;;0.10;0.10;;;;;;;;;;5404213;23;20065;-87
2024/02/01 08:27:20;;;;;;;0.10;0.10;;;;;;;;;;4996163;28;20061;-89
2024/02/01 08:30:12;;;;;;;0.10;0.10;;;;;;;;;;4982126;28;20094;-89
2024/02/01 08:32:44;;;;;;;0.10;0.10;;;;;;;;;;4980981;28;20064;-89
2024/02/01 08:35:25;;;;;;;0.10;0.10;;;;;;;;;;4981636;28;20129;-89
2024/02/01 08:38:06;;;;;;;0.10;0.10;;;;;;;;;;4975686;28;20042;-88
2024/02/01 08:40:43;;;;;;;0.10;0.10;;;;;;;;;;4979027;28;20046;-89
2024/02/01 08:43:12;;;;;;;0.20;0.20;;;;;;;;;;4980071;28;20088;-88
2024/02/01 08:45:53;;;;;;;0.22;0.22;;;;;;;;;;4980324;28;20077;-89
2024/02/01 08:48:24;;;;;;;0.10;0.10;;;;;;;;;;4985759;28;20054;-88
2024/02/01 08:50:54;;;;;;;0.10;0.10;;;;;;;;;;5008360;28;20050;-88
2024/02/01 08:53:25;;;;;;;0.05;0.05;;;;;;;;;;4981100;28;20133;-89
2024/02/01 08:56:03;;;;;;;0.10;0.10;;;;;;;;;;4999121;28;20042;-88
2024/02/01 08:58:38;;;;;;;0.10;0.10;;;;;;;;;;4983146;28;20096;-89
2024/02/01 09:01:24;;;;;;;0.10;0.10;;;;;;;;;;4985891;28;20096;-87
2024/02/01 09:03:52;;;;;;;0.17;0.17;;;;;;;;;;4981966;28;20058;-89
2024/02/01 09:06:22;;;;;;;0.30;0.15;;;;;;;;;;4986257;28;20125;-89
2024/02/01 09:09:04;;;;;;;0.00;0.00;;;;;;;;;;5109753;23;20051;-88
2024/02/01 09:11:37;;;;;;;0.47;0.03;;;;;;;;;;4985181;28;20047;-89
2024/02/01 09:14:11;;;;;;;0.05;0.05;;;;;;;;;;4982899;28;20498;-89
2024/02/01 16:35:36;;;;;;;0.10;0.10;;;;;;;;;;4965338;29;20066;-88
2024/02/01 16:38:15;;;;;;;0.20;0.20;;;;;;;;;;4946746;29;20097;-89
2024/02/01 16:40:57;;;;;;;0.20;0.20;;;;;;;;;;4961280;29;20050;-90
2024/02/01 16:43:40;;;;;;;0.10;0.10;;;;;;;;;;4956018;29;20051;-89
2024/02/01 17:11:35;;;;;;;0.10;0.10;;;;;;;;;;6212417;23;20086;-89
2024/02/01 17:14:10;;;;;;;0.20;0.20;;;;;;;;;;6244511;23;20043;-89
2024/02/01 17:17:11;;;;;;;0.10;0.10;;;;;;;;;;6268807;22;20015;-89
2024/02/01 17:19:43;;;;;;;0.10;0.10;;;;;;;;;;6242127;23;20008;-89
2024/02/01 17:22:25;;;;;;;0.20;0.20;;;;;;;;;;6250136;23;20027;-88
2024/02/01 17:24:56;;;;;;;0.20;0.20;;;;;;;;;;6247473;23;20020;-88
2024/02/01 17:27:39;;;;;;;0.20;0.20;;;;;;;;;;6249197;22;20035;-89
2024/02/01 17:30:46;;;;;;;0.10;0.10;;;;;;;;;;6248699;22;20039;-89
2024/02/01 17:37:22;;;;;;;0.10;0.10;;;;;;;;;;6144589;23;20083;-90
2024/02/01 17:40:04;;;;;;;0.20;0.20;;;;;;;;;;6111811;23;20112;-89
2024/02/01 17:42:41;;;;;;;0.10;0.10;;;;;;;;;;6236899;23;20027;-89
2024/02/01 17:45:17;;;;;;;0.20;0.20;;;;;;;;;;6234171;23;20217;-89
2024/02/01 17:48:02;;;;;;;0.10;0.10;;;;;;;;;;6234033;23;20035;-88
2024/02/01 17:50:44;;;;;;;0.10;0.10;;;;;;;;;;6237327;23;20074;-88
2024/02/01 17:56:50;;;;;;;0.20;0.20;;;;;;;;;;6176022;23;20333;-89
2024/02/01 17:59:39;;;;;;;0.40;0.40;;;;;;;;;;6164933;23;20017;-88
2024/02/01 18:02:23;;;;;;;0.15;0.15;;;;;;;;;;6169329;23;20028;-89
2024/02/01 18:05:11;;;;;;;0.20;0.20;;;;;;;;;;6237398;23;20031;-89
2024/02/01 18:08:00;;;;;;;0.40;0.40;;;;;;;;;;6233167;23;20025;-89
2024/02/01 18:13:37;;;;;;;0.13;0.13;;;;;;;;;;6230042;23;20027;-90
2024/02/01 18:16:25;;;;;;;0.20;0.20;;;;;;;;;;6229887;23;20024;-88
2024/02/01 18:19:20;;;;;;;0.20;0.20;;;;;;;;;;6228778;23;20039;-90
2024/02/01 18:25:44;;;;;;;0.10;0.10;;;;;;;;;;6240051;22;20020;-88
2024/02/01 18:28:23;;;;;;;0.15;0.15;;;;;;;;;;6209417;23;20064;-90
2024/02/01 18:31:09;;;;;;;0.20;0.20;;;;;;;;;;6267256;22;20019;-88
2024/02/01 18:33:56;;;;;;;2.75;2.58;;;;;;;;;;6268810;22;20054;-89
2024/02/01 18:36:43;;;;;;;0.20;0.20;;;;;;;;;;6265920;22;20012;-90
2024/02/01 18:39:33;;;;;;;0.10;0.10;;;;;;;;;;6269739;22;20024;-89
2024/02/01 18:42:21;;;;;;;0.20;0.20;;;;;;;;;;6267301;22;20012;-88
2024/02/01 18:44:57;;;;;;;;;;;;;;;;;;6267161;22;20020;-89
2024/02/01 18:47:41;;;;;;;0.52;0.45;;;;;;;;;;6265548;22;19904;-89
2024/02/01 18:50:45;;;;;;;;;;;;;;;;;;;;;
2024/02/01 18:53:37;;;;;;;0.20;0.20;;;;;;;;;;6263923;22;20219;-89
2024/02/01 18:56:19;;;;;;;0.13;0.13;;;;;;;;;;6264293;22;20067;-90
2024/02/01 18:59:16;;;;;;;;;;;;;;;;;;;;;
2024/02/01 19:01:59;;;;;;;0.20;0.20;;;;;;;;;;6262110;23;20030;-90
2024/02/01 19:05:00;;;;;;;0.10;0.10;;;;;;;;;;6122204;23;20013;-89
2024/02/01 19:07:59;;;;;;;1.60;0.57;;;;;;;;;;6123163;23;20246;-89
2024/02/01 19:10:55;;;;;;;0.63;0.63;;;;;;;;;;6141755;22;20083;-88
2024/02/01 19:13:56;;;;;;;0.60;0.60;;;;;;;;;;6226277;23;20103;-89
2024/02/01 19:16:45;;;;;;;0.20;0.20;;;;;;;;;;6232218;22;20039;-89
2024/02/01 19:19:33;;;;;;;0.10;0.10;;;;;;;;;;6229067;23;20111;-89
2024/02/01 19:22:34;;;;;;;0.10;0.10;;;;;;;;;;6226739;23;20024;-89
2024/02/01 19:25:20;;;;;;;0.40;0.40;;;;;;;;;;6228490;23;20044;-89
2024/02/01 19:31:32;;;;;;;0.10;0.10;;;;;;;;;;6194276;22;20042;-89
2024/02/01 19:34:20;;;;;;;0.17;0.17;;;;;;;;;;6228341;23;20035;-89
2024/02/01 19:37:02;;;;;;;0.13;0.13;;;;;;;;;;6196479;23;20094;-89
2024/02/01 19:39:46;;;;;;;0.20;0.20;;;;;;;;;;6229741;23;20029;-89
2024/02/01 19:46:05;;;;;;;0.20;0.20;;;;;;;;;;6260026;23;20010;-88
2024/02/01 19:48:49;;;;;;;0.28;0.28;;;;;;;;;;6237574;23;20032;-88
2024/02/01 19:51:20;;;;;;;0.20;0.20;;;;;;;;;;6260991;23;20061;-88
2024/02/01 19:53:49;;;;;;;0.10;0.10;;;;;;;;;;6234341;23;20028;-88
2024/02/01 19:56:26;;;;;;;0.30;0.30;;;;;;;;;;6234904;23;20031;-89
2024/02/01 19:59:07;;;;;;;1.08;0.82;;;;;;;;;;6236276;23;20036;-88
2024/02/01 20:04:22;;;;;;;0.20;0.20;;;;;;;;;;6261361;22;20000;-90
2024/02/01 20:07:04;;;;;;;0.40;0.40;;;;;;;;;;6260709;23;20058;-89
2024/02/01 20:09:54;;;;;;;0.10;0.10;;;;;;;;;;6250052;23;20100;-89
2024/02/01 20:12:30;;;;;;;0.10;0.10;;;;;;;;;;6264940;22;20020;-92
2024/02/01 20:15:14;;;;;;;0.20;0.20;;;;;;;;;;6264442;23;20098;-88
2024/02/01 20:17:49;;;;;;;0.17;0.17;;;;;;;;;;6264170;22;20035;-89
2024/02/01 20:20:32;;;;;;;0.10;0.10;;;;;;;;;;6265669;22;20024;-89
2024/02/01 20:23:11;;;;;;;0.15;0.15;;;;;;;;;;6268795;22;20028;-88
2024/02/01 20:25:52;;;;;;;37.80;3.03;;;;;;;;;;6263850;22;20011;-88
2024/02/01 20:28:53;;;;;;;0.20;0.20;;;;;;;;;;6264916;22;20080;-89
2024/02/01 20:31:35;;;;;;;0.20;0.20;;;;;;;;;;6256479;22;20022;-88
2024/02/01 20:34:09;;;;;;;0.10;0.10;;;;;;;;;;6268508;22;20008;-89
2024/02/01 20:36:51;;;;;;;0.10;0.10;;;;;;;;;;6266414;23;20028;-89
2024/02/01 20:39:26;;;;;;;0.10;0.10;;;;;;;;;;6268438;22;20076;-89
2024/02/01 20:42:11;;;;;;;0.10;0.10;;;;;;;;;;6224583;22;20064;-89
2024/02/01 20:44:40;;;;;;;0.20;0.20;;;;;;;;;;6268180;22;20024;-89
2024/02/01 20:47:33;;;;;;;2.65;0.63;;;;;;;;;;6255140;22;20027;-90
2024/02/01 20:50:38;;;;;;;0.15;0.13;;;;;;;;;;6258729;22;20072;-89
2024/02/01 20:53:40;;;;;;;0.20;0.20;;;;;;;;;;6242464;22;20035;-89
2024/02/01 20:56:37;;;;;;;0.20;0.20;;;;;;;;;;6244032;22;20035;-89
2024/02/01 20:59:30;;;;;;;0.28;0.28;;;;;;;;;;6270582;22;20012;-90
2024/02/01 21:02:06;;;;;;;0.20;0.20;;;;;;;;;;6267887;22;20008;-90
2024/02/01 21:04:49;;;;;;;;;;;;;;;;;;6264969;22;20031;-89
2024/02/01 21:07:30;;;;;;;0.20;0.20;;;;;;;;;;6240794;23;20013;-89
2024/02/01 21:10:16;;;;;;;0.10;0.10;;;;;;;;;;6230721;23;20476;-89
2024/02/01 21:15:32;;;;;;;0.10;0.10;;;;;;;;;;6241312;22;20004;-89
2024/02/01 21:18:11;;;;;;;0.20;0.20;;;;;;;;;;6233427;23;20020;-88
2024/02/01 21:21:01;;;;;;;0.20;0.20;;;;;;;;;;6230910;23;20021;-88
2024/02/01 21:23:46;;;;;;;0.25;0.20;;;;;;;;;;6255067;23;20019;-89
2024/02/01 21:26:23;;;;;;;;;;;;;;;;;;6254729;23;20024;-88
2024/02/01 21:29:39;;;;;;;0.20;0.20;;;;;;;;;;6260331;23;19959;-91
2024/02/01 21:32:20;;;;;;;0.20;0.20;;;;;;;;;;6081005;23;20026;-89
2024/02/01 21:34:53;;;;;;;0.10;0.10;;;;;;;;;;6175176;23;20066;-88
2024/02/01 21:37:34;;;;;;;0.10;0.10;;;;;;;;;;6231379;22;20024;-90
2024/02/01 21:43:41;;;;;;;0.20;0.20;;;;;;;;;;6203559;23;20029;-91
2024/02/01 21:46:13;;;;;;;0.10;0.10;;;;;;;;;;6194627;23;20029;-90
2024/02/01 21:49:18;;;;;;;0.20;0.20;;;;;;;;;;6200991;23;20021;-90
2024/02/01 21:52:04;;;;;;;0.40;0.40;;;;;;;;;;6172660;23;20229;-88
2024/02/01 21:54:32;;;;;;;0.20;0.20;;;;;;;;;;6175096;23;20032;-91
2024/02/01 21:57:15;;;;;;;0.20;0.20;;;;;;;;;;6198299;22;20027;-89
2024/02/01 21:59:49;;;;;;;0.20;0.20;;;;;;;;;;6252995;23;20525;-90
2024/02/01 22:02:26;;;;;;;0.20;0.20;;;;;;;;;;6231331;23;20067;-90
2024/02/01 22:05:29;;;;;;;0.20;0.20;;;;;;;;;;6256552;22;20148;-89
2024/02/01 22:08:08;;;;;;;0.10;0.10;;;;;;;;;;6256357;23;20028;-90
2024/02/01 22:10:43;;;;;;;0.20;0.20;;;;;;;;;;6255992;23;20024;-90
2024/02/01 22:13:30;;;;;;;0.10;0.10;;;;;;;;;;6254509;22;20020;-90
2024/02/01 22:16:03;;;;;;;0.10;0.10;;;;;;;;;;6252984;23;20024;-90
2024/02/01 22:18:33;;;;;;;0.10;0.10;;;;;;;;;;6252508;23;20174;-90
2024/02/01 22:24:47;;;;;;;0.13;0.13;;;;;;;;;;6255686;22;20028;-90
2024/02/01 22:27:27;;;;;;;0.30;0.30;;;;;;;;;;6255534;22;20085;-89
2024/02/01 22:30:10;;;;;;;0.10;0.10;;;;;;;;;;6254608;22;20083;-90
2024/02/01 22:32:52;;;;;;;0.10;0.10;;;;;;;;;;6255356;23;20020;-90
2024/02/01 22:35:20;;;;;;;1.55;0.77;;;;;;;;;;6253561;23;20020;-90
2024/02/01 22:37:49;;;;;;;0.20;0.20;;;;;;;;;;6253316;23;20024;-90
2024/02/01 22:40:24;;;;;;;0.10;0.10;;;;;;;;;;6254343;23;20020;-88
2024/02/01 22:43:05;;;;;;;0.20;0.20;;;;;;;;;;6254335;23;20082;-90
2024/02/01 22:45:41;;;;;;;0.20;0.20;;;;;;;;;;6252792;23;20059;-90
2024/02/01 22:48:18;;;;;;;0.20;0.20;;;;;;;;;;6254658;23;20034;-90
2024/02/01 22:50:53;;;;;;;0.13;0.13;;;;;;;;;;6254667;23;20349;-91
2024/02/01 22:53:23;;;;;;;0.10;0.10;;;;;;;;;;6254922;23;20089;-89
2024/02/01 22:56:05;;;;;;;0.10;0.10;;;;;;;;;;6253011;22;20047;-90
2024/02/01 22:58:40;;;;;;;0.10;0.10;;;;;;;;;;6254403;23;20020;-90
2024/02/01 23:01:21;;;;;;;0.10;0.10;;;;;;;;;;6254941;23;20024;-90
2024/02/01 23:03:51;;;;;;;0.10;0.10;;;;;;;;;;6262538;22;20111;-90
2024/02/01 23:06:19;;;;;;;0.25;0.20;;;;;;;;;;6257872;23;20082;-90
2024/02/01 23:08:49;;;;;;;0.20;0.20;;;;;;;;;;6256203;23;20116;-90
2024/02/01 23:11:20;;;;;;;0.17;0.17;;;;;;;;;;6253344;23;20099;-90
2024/02/01 23:13:55;;;;;;;0.13;0.13;;;;;;;;;;6250243;23;20126;-91
2024/02/01 23:16:24;;;;;;;0.10;0.10;;;;;;;;;;6250847;23;20080;-90
2024/02/01 23:19:02;;;;;;;0.13;0.13;;;;;;;;;;6253498;22;20024;-90
2024/02/01 23:25:11;;;;;;;0.10;0.10;;;;;;;;;;6271588;23;20010;-90
2024/02/01 23:27:40;;;;;;;0.10;0.10;;;;;;;;;;6256649;23;20028;-90
2024/02/01 23:30:08;;;;;;;0.10;0.10;;;;;;;;;;6253053;23;20035;-89
2024/02/01 23:32:37;;;;;;;0.20;0.20;;;;;;;;;;6254351;23;20028;-91
2024/02/01 23:35:18;;;;;;;0.10;0.10;;;;;;;;;;6258334;23;20031;-90
2024/02/01 23:37:46;;;;;;;0.15;0.15;;;;;;;;;;6255883;23;20052;-90
2024/02/01 23:40:13;;;;;;;0.10;0.10;;;;;;;;;;6259635;22;20090;-90
2024/02/01 23:42:40;;;;;;;0.10;0.10;;;;;;;;;;6257069;22;20198;-90
2024/02/01 23:45:16;;;;;;;0.10;0.10;;;;;;;;;;6253318;22;20024;-89
2024/02/01 23:47:44;;;;;;;0.20;0.20;;;;;;;;;;6251979;23;20054;-90
2024/02/01 23:50:13;;;;;;;0.10;0.10;;;;;;;;;;6255195;23;20043;-90
2024/02/01 23:52:42;;;;;;;0.10;0.10;;;;;;;;;;6252271;23;20103;-90
2024/02/01 23:55:14;;;;;;;0.10;0.10;;;;;;;;;;6254434;23;20024;-91
2024/02/01 23:57:42;;;;;;;0.10;0.10;;;;;;;;;;6257997;22;20025;-90
